createdAt,value
2019-03-11T00:00:42.853Z,69.00
2019-03-11T00:03:12.264Z,68.90
2019-03-11T00:05:42.209Z,69.00
2019-03-11T00:08:11.675Z,69.30
2019-03-11T00:10:41.110Z,68.80
2019-03-11T00:13:10.543Z,68.80
2019-03-11T00:15:40.270Z,69.20
2019-03-11T00:18:09.704Z,69.00
2019-03-11T00:20:39.131Z,69.30
2019-03-11T00:23:08.673Z,68.80
2019-03-11T00:25:38.100Z,69.40
2019-03-11T00:28:07.558Z,69.20
2019-03-11T00:30:37.207Z,69.20
2019-03-11T00:33:06.931Z,69.50
2019-03-11T00:35:36.333Z,69.60
2019-03-11T00:38:06.166Z,69.80
2019-03-11T00:40:35.536Z,69.60
2019-03-11T00:43:06.138Z,70.00
2019-03-11T00:45:40.283Z,69.50
2019-03-11T00:48:09.763Z,69.80
2019-03-11T00:50:39.455Z,69.60
2019-03-11T00:53:08.867Z,69.70
2019-03-11T00:55:38.260Z,70.50
2019-03-11T00:58:07.762Z,69.60
2019-03-11T01:00:37.992Z,69.90
2019-03-11T01:03:07.695Z,70.10
2019-03-11T01:05:37.146Z,69.90
2019-03-11T01:08:06.600Z,70.10
2019-03-11T01:10:36.276Z,69.90
2019-03-11T01:13:06.170Z,69.80
2019-03-11T01:15:35.525Z,69.90
2019-03-11T01:18:04.977Z,69.80
2019-03-11T01:20:34.430Z,69.90
2019-03-11T01:23:03.960Z,69.90
2019-03-11T01:25:33.370Z,69.80
2019-03-11T01:28:02.897Z,69.90
2019-03-11T01:30:32.335Z,69.90
2019-03-11T01:33:01.974Z,70.00
2019-03-11T01:35:31.826Z,70.00
2019-03-11T01:38:01.645Z,70.10
2019-03-11T01:40:31.014Z,70.10
2019-03-11T01:43:00.404Z,70.30
2019-03-11T01:45:29.824Z,70.10
2019-03-11T01:47:59.298Z,70.40
2019-03-11T01:50:29.115Z,70.40
2019-03-11T01:52:58.560Z,70.50
2019-03-11T01:55:29.230Z,70.40
2019-03-11T01:57:58.687Z,70.40
2019-03-11T02:00:28.106Z,70.70
2019-03-11T02:02:57.560Z,70.70
2019-03-11T02:05:26.930Z,70.80
2019-03-11T02:07:56.292Z,71.10
2019-03-11T02:10:25.742Z,71.40
2019-03-11T02:12:55.316Z,71.30
2019-03-11T02:15:24.826Z,71.40
2019-03-11T02:17:54.644Z,71.30
2019-03-11T02:20:24.354Z,71.00
2019-03-11T02:22:54.176Z,71.30
2019-03-11T02:25:23.716Z,71.30
2019-03-11T02:27:53.066Z,71.20
2019-03-11T02:30:22.517Z,71.30
2019-03-11T02:32:52.194Z,71.00
2019-03-11T02:35:31.377Z,71.20
2019-03-11T02:38:00.798Z,71.00
2019-03-11T02:40:31.335Z,71.90
2019-03-11T02:43:00.761Z,70.90
2019-03-11T02:45:30.190Z,70.90
2019-03-11T02:47:59.668Z,71.00
2019-03-11T02:50:29.187Z,71.00
2019-03-11T02:52:58.633Z,70.80
2019-03-11T02:55:28.135Z,70.80
2019-03-11T02:57:57.548Z,70.70
2019-03-11T03:00:27.311Z,70.80
2019-03-11T03:03:00.825Z,70.60
2019-03-11T03:05:33.036Z,70.80
2019-03-11T03:08:03.482Z,70.50
2019-03-11T03:10:32.920Z,70.50
2019-03-11T03:13:02.338Z,70.50
2019-03-11T03:15:31.823Z,70.80
2019-03-11T03:18:01.446Z,70.50
2019-03-11T03:20:30.841Z,70.50
2019-03-11T03:23:00.407Z,70.40
2019-03-11T03:25:34.406Z,70.30
2019-03-11T03:28:01.121Z,70.30
2019-03-11T03:30:30.718Z,70.10
2019-03-11T03:33:00.214Z,69.90
2019-03-11T03:35:29.974Z,70.60
2019-03-11T03:37:59.351Z,70.50
2019-03-11T03:40:28.872Z,70.80
2019-03-11T03:42:59.614Z,70.90
2019-03-11T03:45:31.951Z,70.70
2019-03-11T03:48:01.840Z,70.80
2019-03-11T03:50:39.085Z,70.60
2019-03-11T03:53:09.442Z,70.50
2019-03-11T03:55:38.912Z,70.30
2019-03-11T03:58:08.372Z,70.10
2019-03-11T04:00:37.866Z,70.10
2019-03-11T04:03:07.663Z,70.00
2019-03-11T04:05:37.129Z,69.80
2019-03-11T04:08:06.555Z,70.60
2019-03-11T04:10:36.029Z,70.10
2019-03-11T04:13:05.519Z,70.20
2019-03-11T04:15:35.023Z,71.20
2019-03-11T04:18:07.531Z,70.50
2019-03-11T04:20:37.594Z,70.50
2019-03-11T04:23:07.220Z,70.50
2019-03-11T04:25:36.743Z,70.80
2019-03-11T04:28:06.632Z,71.10
2019-03-11T04:30:36.145Z,71.40
2019-03-11T04:33:05.591Z,71.40
2019-03-11T04:35:35.024Z,71.20
2019-03-11T04:38:04.494Z,71.10
2019-03-11T04:40:34.149Z,71.00
2019-03-11T04:43:05.007Z,70.90
2019-03-11T04:45:34.431Z,71.00
2019-03-11T04:48:05.023Z,71.20
2019-03-11T04:50:34.440Z,71.50
2019-03-11T04:53:03.784Z,71.70
2019-03-11T04:55:33.242Z,71.50
2019-03-11T04:58:02.590Z,71.70
2019-03-11T05:00:32.799Z,71.60
2019-03-11T05:03:02.195Z,71.70
2019-03-11T05:05:31.713Z,71.60
2019-03-11T05:08:01.201Z,71.70
2019-03-11T05:10:30.610Z,71.70
2019-03-11T05:13:00.049Z,71.70
2019-03-11T05:15:29.759Z,71.80
2019-03-11T05:17:59.123Z,71.70
2019-03-11T05:20:28.572Z,71.80
2019-03-11T05:22:58.052Z,71.80
2019-03-11T05:25:27.476Z,71.90
2019-03-11T05:27:56.909Z,72.00
2019-03-11T05:30:26.434Z,72.00
2019-03-11T05:32:55.775Z,72.20
2019-03-11T05:35:25.218Z,72.10
2019-03-11T05:37:54.807Z,72.30
2019-03-11T05:40:24.244Z,72.30
2019-03-11T05:42:53.602Z,72.40
2019-03-11T05:45:24.576Z,72.20
2019-03-11T05:47:54.290Z,72.10
2019-03-11T05:50:23.644Z,72.40
2019-03-11T05:52:53.136Z,72.80
2019-03-11T05:55:22.554Z,72.40
2019-03-11T05:57:51.936Z,72.40
2019-03-11T06:00:32.608Z,72.60
2019-03-11T06:03:02.073Z,72.80
2019-03-11T06:05:31.510Z,72.90
2019-03-11T06:08:00.924Z,72.30
2019-03-11T06:10:30.334Z,72.30
2019-03-11T06:12:59.794Z,72.40
2019-03-11T06:15:29.185Z,72.60
2019-03-11T06:17:58.814Z,72.70
2019-03-11T06:20:48.533Z,73.00
2019-03-11T06:23:17.951Z,72.80
2019-03-11T06:25:48.403Z,72.80
2019-03-11T06:28:17.822Z,72.60
2019-03-11T06:30:47.177Z,72.60
2019-03-11T06:33:16.718Z,72.70
2019-03-11T06:35:46.221Z,72.60
2019-03-11T06:38:15.679Z,73.00
2019-03-11T06:40:46.110Z,73.00
2019-03-11T06:43:15.648Z,73.10
2019-03-11T06:45:45.144Z,73.50
2019-03-11T06:48:14.557Z,73.50
2019-03-11T06:50:43.939Z,73.30
2019-03-11T06:53:13.472Z,74.40
2019-03-11T06:55:42.930Z,73.80
2019-03-11T06:58:12.376Z,74.00
2019-03-11T07:00:42.906Z,74.50
2019-03-11T07:03:12.238Z,74.20
2019-03-11T07:05:41.643Z,74.20
2019-03-11T07:08:11.043Z,74.60
2019-03-11T07:10:40.491Z,74.40
2019-03-11T07:13:09.895Z,74.60
2019-03-11T07:15:39.347Z,74.40
2019-03-11T07:18:08.755Z,74.40
2019-03-11T07:20:38.226Z,74.60
2019-03-11T07:23:08.286Z,74.10
2019-03-11T07:25:37.708Z,74.40
2019-03-11T07:28:07.157Z,74.20
2019-03-11T07:30:36.630Z,74.40
2019-03-11T07:33:07.139Z,74.40
2019-03-11T07:35:36.763Z,74.80
2019-03-11T07:38:06.390Z,74.70
2019-03-11T07:40:35.819Z,75.00
2019-03-11T07:43:05.211Z,75.00
2019-03-11T07:45:34.637Z,75.20
2019-03-11T07:48:04.058Z,77.80
2019-03-11T07:50:33.458Z,76.10
2019-03-11T07:53:02.890Z,76.40
2019-03-11T07:55:32.313Z,76.40
2019-03-11T07:58:02.986Z,76.90
2019-03-11T08:00:32.483Z,76.80
2019-03-11T08:03:01.858Z,76.90
2019-03-11T08:05:31.653Z,77.20
2019-03-11T08:08:01.229Z,77.30
2019-03-11T08:10:30.759Z,78.00
2019-03-11T08:13:00.216Z,77.20
2019-03-11T08:15:29.654Z,77.80
2019-03-11T08:18:06.466Z,77.30
2019-03-11T08:20:35.894Z,77.30
2019-03-11T08:23:05.521Z,77.20
2019-03-11T08:25:34.911Z,77.60
2019-03-11T08:28:05.742Z,77.80
2019-03-11T08:30:35.187Z,77.50
2019-03-11T08:33:04.605Z,77.50
2019-03-11T08:35:34.054Z,77.90
2019-03-11T08:38:05.235Z,77.80
2019-03-11T08:40:34.571Z,77.60
2019-03-11T08:43:04.059Z,77.90
2019-03-11T08:45:33.879Z,77.80
2019-03-11T08:48:03.468Z,77.80
2019-03-11T08:50:33.217Z,78.00
2019-03-11T08:53:02.966Z,77.80
2019-03-11T08:55:32.979Z,78.00
2019-03-11T08:58:02.916Z,77.80
2019-03-11T09:00:32.535Z,77.80
2019-03-11T09:03:02.214Z,77.50
2019-03-11T09:05:32.029Z,77.80
2019-03-11T09:08:01.695Z,78.00
2019-03-11T09:10:31.373Z,77.80
2019-03-11T09:13:01.119Z,78.60
2019-03-11T09:15:31.128Z,77.50
2019-03-11T09:18:01.823Z,77.30
2019-03-11T09:20:31.513Z,77.50
2019-03-11T09:23:01.137Z,77.60
2019-03-11T09:25:31.849Z,77.60
2019-03-11T09:28:01.475Z,77.80
2019-03-11T09:30:32.484Z,77.50
2019-03-11T09:33:02.297Z,77.60
2019-03-11T09:35:32.105Z,78.10
2019-03-11T09:38:03.756Z,77.60
2019-03-11T09:40:32.940Z,77.70
2019-03-11T09:43:02.647Z,77.70
2019-03-11T09:45:34.674Z,77.30
2019-03-11T09:48:05.120Z,77.60
2019-03-11T09:50:34.785Z,77.20
2019-03-11T09:53:04.261Z,77.10
2019-03-11T09:55:33.727Z,76.90
2019-03-11T09:58:03.194Z,76.80
2019-03-11T10:00:34.259Z,76.30
2019-03-11T10:03:03.783Z,76.40
2019-03-11T10:05:33.216Z,76.00
2019-03-11T10:08:04.080Z,77.20
2019-03-11T10:10:33.476Z,77.00
2019-03-11T10:13:02.919Z,76.80
2019-03-11T10:15:33.340Z,77.00
2019-03-11T10:18:03.951Z,77.10
2019-03-11T10:20:33.477Z,77.40
2019-03-11T10:23:02.863Z,77.10
2019-03-11T10:25:32.348Z,76.50
2019-03-11T10:28:01.809Z,76.00
2019-03-11T10:30:31.250Z,75.70
2019-03-11T10:33:02.356Z,75.20
2019-03-11T10:35:32.944Z,74.50
2019-03-11T10:38:02.974Z,74.80
2019-03-11T10:40:32.665Z,74.80
2019-03-11T10:43:02.118Z,74.30
2019-03-11T10:45:33.240Z,74.10
2019-03-11T10:48:02.702Z,74.10
2019-03-11T10:50:32.054Z,74.10
2019-03-11T10:53:01.745Z,73.70
2019-03-11T10:55:31.128Z,74.30
2019-03-11T10:58:00.849Z,74.50
2019-03-11T11:00:33.883Z,73.80
2019-03-11T11:03:03.382Z,73.00
2019-03-11T11:05:32.864Z,73.10
2019-03-11T11:08:02.336Z,72.40
2019-03-11T11:10:31.810Z,73.10
2019-03-11T11:13:01.271Z,74.00
2019-03-11T11:15:32.928Z,72.30
2019-03-11T11:18:02.344Z,72.10
2019-03-11T11:20:31.867Z,71.60
2019-03-11T11:23:01.475Z,72.30
2019-03-11T11:25:31.325Z,72.50
2019-03-11T11:28:00.800Z,72.20
2019-03-11T11:30:31.460Z,71.70
2019-03-11T11:33:01.160Z,71.20
2019-03-11T11:35:30.548Z,71.40
2019-03-11T11:38:00.070Z,71.40
2019-03-11T11:40:30.407Z,71.30
2019-03-11T11:42:59.848Z,71.50
2019-03-11T11:45:32.862Z,70.10
2019-03-11T11:48:02.662Z,70.00
2019-03-11T11:50:32.128Z,70.10
2019-03-11T11:53:01.604Z,69.40
2019-03-11T11:55:31.057Z,69.80
2019-03-11T11:58:00.577Z,70.00
2019-03-11T12:00:38.566Z,69.60
2019-03-11T12:03:08.066Z,69.20
2019-03-11T12:05:37.529Z,69.10
2019-03-11T12:08:07.282Z,69.70
2019-03-11T12:10:36.724Z,69.50
2019-03-11T12:13:06.483Z,69.30
2019-03-11T12:15:36.018Z,69.20
2019-03-11T12:18:05.523Z,69.00
2019-03-11T12:20:35.014Z,69.10
2019-03-11T12:23:04.756Z,69.40
2019-03-11T12:25:34.207Z,68.90
2019-03-11T12:28:03.733Z,69.50
2019-03-11T12:30:34.431Z,69.50
2019-03-11T12:33:04.066Z,69.20
2019-03-11T12:35:33.735Z,69.10
2019-03-11T12:38:04.793Z,68.70
2019-03-11T12:40:34.226Z,68.40
2019-03-11T12:43:03.746Z,68.40
2019-03-11T12:45:39.738Z,67.50
2019-03-11T12:48:09.208Z,67.10
2019-03-11T12:50:38.945Z,67.20
2019-03-11T12:53:08.393Z,67.10
2019-03-11T12:55:37.807Z,67.90
2019-03-11T12:58:07.255Z,68.00
2019-03-11T13:00:36.652Z,68.50
2019-03-11T13:03:06.312Z,67.80
2019-03-11T13:05:35.807Z,67.20
2019-03-11T13:08:05.578Z,66.30
2019-03-11T13:14:08.024Z,66.20
2019-03-11T13:16:37.633Z,65.50
2019-03-11T13:19:13.326Z,65.60
2019-03-11T13:21:38.453Z,65.50
2019-03-11T13:24:08.495Z,65.70
2019-03-11T13:26:38.069Z,66.40
2019-03-11T13:29:07.617Z,66.20
2019-03-11T13:31:37.214Z,66.00
2019-03-11T13:34:06.931Z,65.90
2019-03-11T13:36:38.293Z,65.50
2019-03-11T13:39:10.499Z,64.30
2019-03-11T13:41:40.105Z,64.00
2019-03-11T13:44:09.668Z,63.90
2019-03-11T13:46:40.312Z,64.20
2019-03-11T13:49:09.933Z,64.50
2019-03-11T13:51:39.623Z,65.70
2019-03-11T13:54:09.719Z,65.30
2019-03-11T13:56:39.513Z,65.50
2019-03-11T13:59:09.103Z,66.00
2019-03-11T14:01:39.569Z,65.50
2019-03-11T14:04:09.017Z,64.80
2019-03-11T14:06:38.538Z,65.30
2019-03-11T14:09:08.244Z,64.60
2019-03-11T14:11:38.621Z,64.10
2019-03-11T14:14:08.153Z,64.30
2019-03-11T14:16:37.723Z,64.70
2019-03-11T14:19:07.209Z,64.20
2019-03-11T14:21:37.099Z,65.60
2019-03-11T14:24:06.548Z,65.10
2019-03-11T14:26:36.053Z,64.90
2019-03-11T14:29:05.587Z,63.90
2019-03-11T14:31:35.005Z,64.10
2019-03-11T14:34:04.538Z,64.70
2019-03-11T14:36:34.251Z,64.40
2019-03-11T14:39:04.925Z,64.30
2019-03-11T14:41:35.950Z,63.10
2019-03-11T14:44:05.392Z,63.30
2019-03-11T14:46:34.754Z,64.40
2019-03-11T14:49:04.520Z,65.00
2019-03-11T14:51:33.968Z,65.30
2019-03-11T14:54:03.400Z,64.60
2019-03-11T14:56:32.978Z,64.00
2019-03-11T14:59:02.422Z,63.90
2019-03-11T15:01:31.886Z,64.10
2019-03-11T15:04:01.410Z,64.80
2019-03-11T15:06:30.861Z,64.70
2019-03-11T15:09:00.320Z,64.30
2019-03-11T15:11:30.037Z,64.40
2019-03-11T15:14:00.413Z,64.40
2019-03-11T15:16:29.930Z,64.80
2019-03-11T15:18:59.360Z,64.30
2019-03-11T15:21:28.821Z,64.60
2019-03-11T15:23:58.429Z,64.30
2019-03-11T15:26:28.066Z,64.30
2019-03-11T15:28:57.542Z,64.20
2019-03-11T15:31:34.083Z,64.40
2019-03-11T15:34:03.583Z,64.70
2019-03-11T15:36:33.831Z,64.90
2019-03-11T15:39:04.160Z,65.60
2019-03-11T15:41:34.450Z,65.80
2019-03-11T15:44:04.082Z,66.00
2019-03-11T15:46:39.170Z,66.20
2019-03-11T15:49:04.856Z,66.40
2019-03-11T15:51:36.796Z,66.90
2019-03-11T15:54:05.607Z,66.80
2019-03-11T15:56:35.060Z,67.10
2019-03-11T15:59:06.120Z,67.20
2019-03-11T16:01:35.557Z,67.10
2019-03-11T16:04:05.151Z,67.10
2019-03-11T16:06:35.010Z,67.30
2019-03-11T16:09:06.251Z,67.40
2019-03-11T16:11:37.428Z,67.50
2019-03-11T16:14:06.907Z,67.70
2019-03-11T16:16:36.421Z,67.60
2019-03-11T16:19:06.074Z,67.70
2019-03-11T16:21:35.578Z,67.50
2019-03-11T16:24:05.118Z,67.50
2019-03-11T16:26:34.662Z,67.60
2019-03-11T16:29:04.228Z,67.50
2019-03-11T16:31:33.763Z,67.50
2019-03-11T16:34:05.661Z,67.50
2019-03-11T16:36:36.620Z,67.50
2019-03-11T16:39:07.734Z,67.50
2019-03-11T16:41:38.354Z,67.60
2019-03-11T16:44:07.857Z,67.60
2019-03-11T16:46:37.382Z,67.50
2019-03-11T16:49:06.829Z,67.30
2019-03-11T16:51:36.308Z,67.20
2019-03-11T16:54:05.810Z,67.20
2019-03-11T16:56:35.232Z,67.20
2019-03-11T16:59:04.872Z,67.20
2019-03-11T17:01:34.313Z,67.40
2019-03-11T17:04:03.834Z,67.70
2019-03-11T17:06:33.378Z,67.50
2019-03-11T17:09:04.298Z,67.60
2019-03-11T17:11:35.324Z,67.70
2019-03-11T17:14:05.195Z,67.70
2019-03-11T17:16:34.682Z,67.80
2019-03-11T17:19:04.239Z,67.80
2019-03-11T17:21:33.694Z,67.70
2019-03-11T17:24:03.149Z,67.50
2019-03-11T17:26:34.032Z,67.30
2019-03-11T17:29:03.453Z,67.20
2019-03-11T17:31:32.911Z,67.50
2019-03-11T17:34:02.432Z,67.40
2019-03-11T17:36:32.109Z,67.40
2019-03-11T17:39:01.591Z,67.30
2019-03-11T17:41:32.673Z,67.30
2019-03-11T17:44:02.217Z,67.20
2019-03-11T17:46:31.932Z,67.20
2019-03-11T17:49:02.421Z,67.20
2019-03-11T17:51:32.010Z,67.20
2019-03-11T17:54:01.463Z,67.10
2019-03-11T17:56:31.455Z,67.30
2019-03-11T17:59:00.959Z,68.40
2019-03-11T18:01:30.537Z,69.10
2019-03-11T18:04:01.060Z,70.00
2019-03-11T18:06:30.578Z,70.40
2019-03-11T18:09:00.113Z,70.20
2019-03-11T18:11:30.007Z,70.10
2019-03-11T18:13:59.516Z,70.50
2019-03-11T18:16:30.077Z,70.00
2019-03-11T18:18:59.509Z,70.30
2019-03-11T18:21:28.984Z,70.00
2019-03-11T18:23:58.485Z,70.20
2019-03-11T18:26:27.954Z,69.70
2019-03-11T18:28:57.510Z,69.70
2019-03-11T18:31:27.027Z,69.70
2019-03-11T18:33:56.494Z,69.60
2019-03-11T18:36:27.050Z,70.50
2019-03-11T18:38:56.460Z,69.80
2019-03-11T18:41:25.919Z,69.70
2019-03-11T18:43:55.603Z,70.00
2019-03-11T18:46:25.008Z,69.80
2019-03-11T18:48:54.548Z,69.90
2019-03-11T18:51:24.080Z,69.90
2019-03-11T18:53:53.609Z,70.10
2019-03-11T18:56:23.111Z,70.30
2019-03-11T18:58:52.613Z,70.30
2019-03-11T19:01:22.393Z,70.20
2019-03-11T19:03:51.864Z,69.80
2019-03-11T19:06:21.308Z,70.30
2019-03-11T19:08:50.744Z,71.10
2019-03-11T19:11:20.276Z,70.30
2019-03-11T19:13:49.753Z,70.50
2019-03-11T19:16:19.311Z,70.70
2019-03-11T19:18:48.876Z,70.60
2019-03-11T19:21:18.406Z,70.60
2019-03-11T19:23:47.815Z,70.60
2019-03-11T19:26:17.304Z,70.70
2019-03-11T19:28:46.704Z,70.80
2019-03-11T19:31:16.104Z,70.80
2019-03-11T19:33:45.629Z,70.70
2019-03-11T19:36:15.641Z,70.90
2019-03-11T19:38:45.129Z,70.90
2019-03-11T19:41:14.670Z,70.70
2019-03-11T19:43:44.454Z,70.80
2019-03-11T19:46:14.019Z,70.60
2019-03-11T19:48:43.671Z,71.00
2019-03-11T19:51:13.165Z,71.20
2019-03-11T19:53:42.625Z,70.90
2019-03-11T19:56:12.125Z,71.00
2019-03-11T19:58:42.651Z,71.00
2019-03-11T20:01:12.021Z,71.00
2019-03-11T20:03:41.951Z,71.10
2019-03-11T20:06:12.464Z,71.30
2019-03-11T20:08:42.034Z,71.30
2019-03-11T20:11:11.547Z,71.40
2019-03-11T20:13:41.403Z,71.20
2019-03-11T20:16:10.939Z,71.40
2019-03-11T20:18:40.336Z,71.50
2019-03-11T20:21:10.175Z,71.60
2019-03-11T20:23:39.659Z,71.50
2019-03-11T20:26:09.280Z,71.40
2019-03-11T20:28:38.773Z,71.30
2019-03-11T20:31:08.364Z,71.40
2019-03-11T20:33:37.928Z,71.40
2019-03-11T20:36:19.787Z,71.60
2019-03-11T20:38:38.655Z,71.60
2019-03-11T20:41:08.120Z,71.70
2019-03-11T20:43:37.684Z,71.70
2019-03-11T20:46:07.184Z,71.80
2019-03-11T20:48:36.637Z,71.80
2019-03-11T20:51:06.497Z,72.10
2019-03-11T20:53:35.932Z,72.10
2019-03-11T20:56:05.457Z,72.20
2019-03-11T20:58:35.160Z,72.10
2019-03-11T21:01:04.655Z,72.20
2019-03-11T21:03:34.190Z,72.10
2019-03-11T21:06:06.683Z,72.10
2019-03-11T21:08:36.060Z,72.30
2019-03-11T21:11:05.631Z,72.30
2019-03-11T21:13:35.064Z,72.30
2019-03-11T21:16:04.509Z,72.30
2019-03-11T21:18:33.909Z,72.40
2019-03-11T21:21:05.063Z,72.40
2019-03-11T21:23:34.502Z,72.50
2019-03-11T21:26:03.951Z,72.40
2019-03-11T21:28:33.545Z,71.90
2019-03-11T21:31:03.047Z,72.80
2019-03-11T21:33:32.537Z,72.70
2019-03-11T21:36:02.059Z,72.70
2019-03-11T21:38:31.492Z,72.80
2019-03-11T21:41:00.979Z,72.80
2019-03-11T21:43:30.376Z,72.90
2019-03-11T21:45:59.750Z,72.90
2019-03-11T21:48:29.278Z,73.00
2019-03-11T21:51:00.722Z,72.90
2019-03-11T21:53:30.315Z,73.00
2019-03-11T21:55:59.849Z,72.90
2019-03-11T21:58:29.285Z,73.00
2019-03-11T22:00:58.676Z,72.90
2019-03-11T22:03:28.158Z,73.00
2019-03-11T22:05:57.613Z,73.00
2019-03-11T22:08:27.070Z,73.00
2019-03-11T22:10:57.734Z,73.30
2019-03-11T22:13:27.179Z,73.30
2019-03-11T22:15:56.635Z,73.40
2019-03-11T22:18:26.113Z,73.30
2019-03-11T22:20:55.521Z,73.30
2019-03-11T22:23:24.887Z,73.20
2019-03-11T22:25:54.628Z,73.30
2019-03-11T22:28:25.133Z,73.30
2019-03-11T22:30:54.569Z,73.30
2019-03-11T22:33:24.053Z,73.20
2019-03-11T22:35:53.478Z,73.40
2019-03-11T22:38:22.866Z,73.50
2019-03-11T22:40:52.343Z,73.60
2019-03-11T22:43:21.772Z,73.50
2019-03-11T22:45:52.303Z,73.60
2019-03-11T22:48:21.762Z,73.50
2019-03-11T22:50:54.593Z,73.60
2019-03-11T22:53:24.088Z,73.50
2019-03-11T22:55:53.535Z,73.60
2019-03-11T22:58:22.960Z,73.50
2019-03-11T23:00:57.122Z,73.50
2019-03-11T23:03:28.348Z,73.50
2019-03-11T23:05:58.680Z,73.70
2019-03-11T23:08:28.328Z,73.60
2019-03-11T23:10:57.834Z,73.50
2019-03-11T23:13:27.412Z,73.60
2019-03-11T23:15:57.318Z,73.80
2019-03-11T23:18:26.834Z,73.80
2019-03-11T23:20:56.262Z,73.50
2019-03-11T23:23:25.820Z,73.50
2019-03-11T23:25:55.254Z,73.70
2019-03-11T23:28:24.703Z,73.90
2019-03-11T23:30:54.788Z,73.70
2019-03-11T23:33:24.237Z,73.80
2019-03-11T23:35:53.744Z,73.70
2019-03-11T23:38:23.258Z,73.80
2019-03-11T23:40:52.781Z,73.70
2019-03-11T23:43:22.217Z,73.90
2019-03-11T23:45:51.718Z,73.70
2019-03-11T23:48:21.137Z,74.10
2019-03-11T23:50:50.916Z,73.70
2019-03-11T23:53:20.388Z,73.70
2019-03-11T23:55:49.812Z,73.90
2019-03-11T23:58:19.253Z,73.80
